sensor_id;sensor_type;location;lat;lon;timestamp;pressure;altitude;pressure_sealevel;temperature;humidity
63946;BME280;50122;56.330;43.838;2023-03-22T06:25:32;100304.56;;;3.94;69.99
63946;BME280;50122;56.330;43.838;2023-03-22T06:28:00;100323.00;;;3.86;71.50
63946;BME280;50122;56.330;43.838;2023-03-22T06:30:27;100319.47;;;3.90;70.42
63946;BME280;50122;56.330;43.838;2023-03-22T06:32:53;100313.06;;;4.07;71.53
63946;BME280;50122;56.330;43.838;2023-03-22T06:35:20;100325.63;;;4.39;69.90
63946;BME280;50122;56.330;43.838;2023-03-22T06:37:47;100314.75;;;4.59;69.52
63946;BME280;50122;56.330;43.838;2023-03-22T06:40:17;100330.03;;;4.84;68.41
63946;BME280;50122;56.330;43.838;2023-03-22T06:42:45;100327.59;;;4.73;66.17
63946;BME280;50122;56.330;43.838;2023-03-22T06:45:12;100335.84;;;4.51;65.98
63946;BME280;50122;56.330;43.838;2023-03-22T06:47:42;100326.53;;;4.37;66.53
63946;BME280;50122;56.330;43.838;2023-03-22T06:50:10;100334.31;;;4.40;67.43
63946;BME280;50122;56.330;43.838;2023-03-22T06:52:39;100327.41;;;4.35;66.43
63946;BME280;50122;56.330;43.838;2023-03-22T06:55:06;100336.31;;;4.25;66.86
63946;BME280;50122;56.330;43.838;2023-03-22T06:57:36;100332.03;;;4.20;65.33
63946;BME280;50122;56.330;43.838;2023-03-22T07:00:03;100340.94;;;4.09;64.83
63946;BME280;50122;56.330;43.838;2023-03-22T07:02:30;100340.16;;;4.03;65.25
63946;BME280;50122;56.330;43.838;2023-03-22T07:04:58;100343.69;;;4.02;64.77
63946;BME280;50122;56.330;43.838;2023-03-22T07:07:24;100345.56;;;3.92;65.30
63946;BME280;50122;56.330;43.838;2023-03-22T07:09:51;100348.28;;;3.87;65.33
63946;BME280;50122;56.330;43.838;2023-03-22T07:12:18;100354.38;;;3.86;65.67
63946;BME280;50122;56.330;43.838;2023-03-22T07:14:45;100354.38;;;3.86;64.68
63946;BME280;50122;56.330;43.838;2023-03-22T07:17:12;100357.00;;;3.86;64.97
63946;BME280;50122;56.330;43.838;2023-03-22T07:19:40;100350.06;;;3.82;65.50
63946;BME280;50122;56.330;43.838;2023-03-22T07:22:08;100357.94;;;3.80;64.75
63946;BME280;50122;56.330;43.838;2023-03-22T07:24:34;100363.19;;;3.79;64.93
63946;BME280;50122;56.330;43.838;2023-03-22T07:27:17;100352.75;;;3.79;64.89
63946;BME280;50122;56.330;43.838;2023-03-22T07:29:43;100355.34;;;3.79;65.11
63946;BME280;50122;56.330;43.838;2023-03-22T07:32:11;100358.78;;;3.82;65.71
63946;BME280;50122;56.330;43.838;2023-03-22T07:34:37;100362.25;;;3.85;65.31
63946;BME280;50122;56.330;43.838;2023-03-22T07:37:04;100368.31;;;3.85;65.97
63946;BME280;50122;56.330;43.838;2023-03-22T07:39:31;100362.16;;;3.89;64.98
63946;BME280;50122;56.330;43.838;2023-03-22T07:41:58;100370.78;;;3.96;64.91
63946;BME280;50122;56.330;43.838;2023-03-22T07:44:25;100364.63;;;3.98;65.22
63946;BME280;50122;56.330;43.838;2023-03-22T07:46:53;100374.09;;;4.06;64.81
63946;BME280;50122;56.330;43.838;2023-03-22T07:49:19;100370.59;;;4.08;64.93
63946;BME280;50122;56.330;43.838;2023-03-22T07:52:05;100366.25;;;4.09;64.93
63946;BME280;50122;56.330;43.838;2023-03-22T07:54:34;100376.56;;;4.16;64.26
63946;BME280;50122;56.330;43.838;2023-03-22T07:57:01;100370.31;;;4.25;63.01
63946;BME280;50122;56.330;43.838;2023-03-22T07:59:27;100371.06;;;4.33;63.60
63946;BME280;50122;56.330;43.838;2023-03-22T08:01:55;100367.53;;;4.34;62.79
63946;BME280;50122;56.330;43.838;2023-03-22T08:04:21;100369.09;;;4.45;61.71
63946;BME280;50122;56.330;43.838;2023-03-22T08:06:48;100374.25;;;4.51;61.30
63946;BME280;50122;56.330;43.838;2023-03-22T08:09:17;100378.56;;;4.55;62.09
63946;BME280;50122;56.330;43.838;2023-03-22T08:11:44;100381.00;;;4.64;61.05
63946;BME280;50122;56.330;43.838;2023-03-22T08:14:11;100388.69;;;4.72;59.60
63946;BME280;50122;56.330;43.838;2023-03-22T08:16:37;100388.66;;;4.74;58.70
63946;BME280;50122;56.330;43.838;2023-03-22T08:19:04;100394.72;;;4.77;58.16
63946;BME280;50122;56.330;43.838;2023-03-22T08:21:34;100386.84;;;4.79;58.23
63946;BME280;50122;56.330;43.838;2023-03-22T08:24:04;100391.09;;;4.84;58.47
63946;BME280;50122;56.330;43.838;2023-03-22T08:26:31;100393.63;;;4.89;57.12
63946;BME280;50122;56.330;43.838;2023-03-22T08:28:58;100401.31;;;5.00;55.54
63946;BME280;50122;56.330;43.838;2023-03-22T08:31:27;100388.16;;;5.03;55.02
63946;BME280;50122;56.330;43.838;2023-03-22T08:33:54;100394.97;;;5.12;55.51
63946;BME280;50122;56.330;43.838;2023-03-22T08:36:21;100392.22;;;5.18;56.60
63946;BME280;50122;56.330;43.838;2023-03-22T08:38:59;100398.94;;;5.30;57.41
63946;BME280;50122;56.330;43.838;2023-03-22T08:41:27;100398.66;;;5.45;55.29
63946;BME280;50122;56.330;43.838;2023-03-22T08:43:56;100406.31;;;5.54;54.40
63946;BME280;50122;56.330;43.838;2023-03-22T08:46:28;100406.97;;;5.64;54.85
63946;BME280;50122;56.330;43.838;2023-03-22T08:48:55;100401.69;;;5.66;52.84
63946;BME280;50122;56.330;43.838;2023-03-22T08:51:28;100405.81;;;5.79;53.68
63946;BME280;50122;56.330;43.838;2023-03-22T08:53:57;100427.59;;;5.81;51.50
63946;BME280;50122;56.330;43.838;2023-03-22T08:56:28;100418.09;;;5.76;52.10
63946;BME280;50122;56.330;43.838;2023-03-22T08:58:54;100407.50;;;5.80;51.91
63946;BME280;50122;56.330;43.838;2023-03-22T09:01:24;100410.88;;;5.87;51.91
63946;BME280;50122;56.330;43.838;2023-03-22T09:03:55;100415.88;;;5.98;49.63
63946;BME280;50122;56.330;43.838;2023-03-22T09:06:25;100426.06;;;6.12;47.90
63946;BME280;50122;56.330;43.838;2023-03-22T09:08:55;100427.88;;;6.10;44.25
63946;BME280;50122;56.330;43.838;2023-03-22T09:11:25;100433.28;;;6.02;43.56
63946;BME280;50122;56.330;43.838;2023-03-22T09:13:51;100429.88;;;5.98;43.20
63946;BME280;50122;56.330;43.838;2023-03-22T09:16:18;100429.44;;;6.18;42.40
63946;BME280;50122;56.330;43.838;2023-03-22T09:18:44;100445.97;;;6.58;40.45
63946;BME280;50122;56.330;43.838;2023-03-22T09:21:14;100433.88;;;7.51;38.79
63946;BME280;50122;56.330;43.838;2023-03-22T09:23:42;100438.91;;;8.45;35.76
63946;BME280;50122;56.330;43.838;2023-03-22T09:26:16;100444.63;;;8.85;33.70
63946;BME280;50122;56.330;43.838;2023-03-22T09:28:43;100448.16;;;9.34;34.21
63946;BME280;50122;56.330;43.838;2023-03-22T09:31:14;100442.81;;;10.07;33.21
63946;BME280;50122;56.330;43.838;2023-03-22T09:33:46;100445.91;;;10.83;30.27
63946;BME280;50122;56.330;43.838;2023-03-22T09:36:17;100449.09;;;11.33;29.33
63946;BME280;50122;56.330;43.838;2023-03-22T09:38:47;100445.63;;;11.89;29.09
63946;BME280;50122;56.330;43.838;2023-03-22T09:41:23;100457.25;;;12.06;27.89
63946;BME280;50122;56.330;43.838;2023-03-22T09:43:58;100440.81;;;11.99;27.65
63946;BME280;50122;56.330;43.838;2023-03-22T09:46:37;100436.25;;;12.20;28.35
63946;BME280;50122;56.330;43.838;2023-03-22T09:49:19;100438.69;;;12.61;26.85
63946;BME280;50122;56.330;43.838;2023-03-22T09:51:50;100434.38;;;12.94;28.33
63946;BME280;50122;56.330;43.838;2023-03-22T09:54:28;100439.38;;;14.32;26.59
63946;BME280;50122;56.330;43.838;2023-03-22T09:57:04;100451.31;;;14.71;26.29
63946;BME280;50122;56.330;43.838;2023-03-22T10:02:52;100447.19;;;14.03;27.48
63946;BME280;50122;56.330;43.838;2023-03-22T10:10:58;100460.00;;;14.59;25.18
63946;BME280;50122;56.330;43.838;2023-03-22T10:13:37;100451.88;;;14.62;24.88
63946;BME280;50122;56.330;43.838;2023-03-22T10:16:14;100447.13;;;14.98;24.86
63946;BME280;50122;56.330;43.838;2023-03-22T10:18:52;100457.75;;;15.42;24.27
63946;BME280;50122;56.330;43.838;2023-03-22T10:21:24;100456.00;;;15.13;24.23
63946;BME280;50122;56.330;43.838;2023-03-22T10:24:04;100447.03;;;14.99;24.03
63946;BME280;50122;56.330;43.838;2023-03-22T10:26:48;100456.78;;;15.58;23.67
63946;BME280;50122;56.330;43.838;2023-03-22T10:29:37;100450.22;;;16.07;23.01
63946;BME280;50122;56.330;43.838;2023-03-22T10:32:14;100459.53;;;16.96;23.46
63946;BME280;50122;56.330;43.838;2023-03-22T10:34:42;100463.81;;;17.11;21.31
63946;BME280;50122;56.330;43.838;2023-03-22T10:37:18;100454.91;;;16.58;22.13
63946;BME280;50122;56.330;43.838;2023-03-22T10:39:49;100451.97;;;16.48;22.32
63946;BME280;50122;56.330;43.838;2023-03-22T10:42:23;100456.56;;;17.39;22.08
63946;BME280;50122;56.330;43.838;2023-03-22T10:45:02;100466.25;;;17.92;20.94
63946;BME280;50122;56.330;43.838;2023-03-22T10:47:39;100448.34;;;18.05;21.30
63946;BME280;50122;56.330;43.838;2023-03-22T10:50:14;100463.22;;;18.09;20.17
63946;BME280;50122;56.330;43.838;2023-03-22T10:52:51;100464.03;;;17.34;20.98
63946;BME280;50122;56.330;43.838;2023-03-22T10:55:37;100451.78;;;16.78;21.34
63946;BME280;50122;56.330;43.838;2023-03-22T10:58:14;100467.88;;;17.17;20.89
63946;BME280;50122;56.330;43.838;2023-03-22T11:00:51;100462.09;;;17.36;20.59
63946;BME280;50122;56.330;43.838;2023-03-22T11:09:00;100480.84;;;19.67;17.80
63946;BME280;50122;56.330;43.838;2023-03-22T11:17:18;100471.63;;;18.29;18.99
63946;BME280;50122;56.330;43.838;2023-03-22T11:20:06;100472.03;;;17.85;18.90
63946;BME280;50122;56.330;43.838;2023-03-22T11:22:41;100473.66;;;17.75;19.68
63946;BME280;50122;56.330;43.838;2023-03-22T11:30:27;100482.19;;;17.93;18.99
63946;BME280;50122;56.330;43.838;2023-03-22T11:33:19;100478.09;;;18.13;18.23
63946;BME280;50122;56.330;43.838;2023-03-22T11:36:00;100486.22;;;18.84;17.99
63946;BME280;50122;56.330;43.838;2023-03-22T11:38:39;100479.88;;;18.74;17.82
63946;BME280;50122;56.330;43.838;2023-03-22T11:41:15;100479.91;;;18.37;17.85
63946;BME280;50122;56.330;43.838;2023-03-22T11:43:47;100479.75;;;18.27;18.15
63946;BME280;50122;56.330;43.838;2023-03-22T11:46:18;100480.81;;;18.73;17.54
63946;BME280;50122;56.330;43.838;2023-03-22T11:48:47;100481.75;;;19.20;18.09
63946;BME280;50122;56.330;43.838;2023-03-22T11:51:18;100490.72;;;19.55;17.45
63946;BME280;50122;56.330;43.838;2023-03-22T11:53:55;100483.38;;;19.34;17.31
63946;BME280;50122;56.330;43.838;2023-03-22T11:56:27;100487.13;;;19.20;17.51
63946;BME280;50122;56.330;43.838;2023-03-22T11:58:55;100490.84;;;19.06;17.26
63946;BME280;50122;56.330;43.838;2023-03-22T12:04:35;100483.38;;;19.57;17.89
63946;BME280;50122;56.330;43.838;2023-03-22T12:07:11;100488.69;;;19.81;16.68
63946;BME280;50122;56.330;43.838;2023-03-22T12:09:42;100502.28;;;19.67;16.30
63946;BME280;50122;56.330;43.838;2023-03-22T12:12:16;100494.81;;;18.65;16.77
63946;BME280;50122;56.330;43.838;2023-03-22T12:14:51;100495.16;;;18.23;17.53
63946;BME280;50122;56.330;43.838;2023-03-22T12:22:51;100484.63;;;18.46;17.42
63946;BME280;50122;56.330;43.838;2023-03-22T12:25:24;100482.59;;;18.61;17.92
63946;BME280;50122;56.330;43.838;2023-03-22T12:27:57;100485.22;;;18.98;17.85
63946;BME280;50122;56.330;43.838;2023-03-22T12:30:28;100483.53;;;19.78;16.44
63946;BME280;50122;56.330;43.838;2023-03-22T12:33:21;100493.31;;;19.09;16.80
63946;BME280;50122;56.330;43.838;2023-03-22T12:35:55;100499.34;;;18.28;17.61
63946;BME280;50122;56.330;43.838;2023-03-22T12:38:30;100496.53;;;17.92;17.28
63946;BME280;50122;56.330;43.838;2023-03-22T12:41:04;100496.38;;;16.76;18.40
63946;BME280;50122;56.330;43.838;2023-03-22T12:43:41;100491.09;;;16.35;19.32
63946;BME280;50122;56.330;43.838;2023-03-22T12:46:17;100493.34;;;16.68;18.49
63946;BME280;50122;56.330;43.838;2023-03-22T12:48:48;100499.69;;;16.94;19.20
63946;BME280;50122;56.330;43.838;2023-03-22T12:51:16;100496.56;;;16.88;18.93
63946;BME280;50122;56.330;43.838;2023-03-22T12:53:46;100508.47;;;17.22;18.79
63946;BME280;50122;56.330;43.838;2023-03-22T12:56:16;100493.50;;;17.19;19.33
63946;BME280;50122;56.330;43.838;2023-03-22T12:58:49;100491.91;;;17.30;19.16
63946;BME280;50122;56.330;43.838;2023-03-22T13:01:34;100495.38;;;18.33;18.54
63946;BME280;50122;56.330;43.838;2023-03-22T13:06:56;100499.28;;;19.83;18.48
63946;BME280;50122;56.330;43.838;2023-03-22T13:17:32;100498.66;;;19.09;17.73
63946;BME280;50122;56.330;43.838;2023-03-22T13:30:24;100512.44;;;19.16;17.83
63946;BME280;50122;56.330;43.838;2023-03-22T13:35:45;100513.13;;;18.83;18.29
63946;BME280;50122;56.330;43.838;2023-03-22T13:38:26;100501.97;;;18.03;18.73
63946;BME280;50122;56.330;43.838;2023-03-22T13:41:14;100514.50;;;18.03;18.99
63946;BME280;50122;56.330;43.838;2023-03-22T13:43:47;100501.00;;;17.40;19.37
63946;BME280;50122;56.330;43.838;2023-03-22T13:59:02;100524.53;;;15.09;23.04
63946;BME280;50122;56.330;43.838;2023-03-22T14:01:35;100515.66;;;15.39;22.77
63946;BME280;50122;56.330;43.838;2023-03-22T14:04:07;100520.19;;;15.08;22.57
63946;BME280;50122;56.330;43.838;2023-03-22T14:06:50;100525.00;;;15.01;23.18
63946;BME280;50122;56.330;43.838;2023-03-22T14:09:33;100523.72;;;14.92;23.24
63946;BME280;50122;56.330;43.838;2023-03-22T15:53:41;100595.75;;;4.58;39.78
63946;BME280;50122;56.330;43.838;2023-03-22T15:56:37;100598.44;;;4.54;40.92
63946;BME280;50122;56.330;43.838;2023-03-22T15:59:15;100597.59;;;4.50;42.32
63946;BME280;50122;56.330;43.838;2023-03-22T16:01:44;100602.00;;;4.49;42.23
63946;BME280;50122;56.330;43.838;2023-03-22T16:04:17;100610.75;;;4.45;43.84
63946;BME280;50122;56.330;43.838;2023-03-22T16:06:43;100604.78;;;4.35;43.26
63946;BME280;50122;56.330;43.838;2023-03-22T16:09:10;100613.50;;;4.34;43.02
63946;BME280;50122;56.330;43.838;2023-03-22T16:11:36;100608.31;;;4.31;43.62
63946;BME280;50122;56.330;43.838;2023-03-22T16:14:01;100603.13;;;4.28;43.37
63946;BME280;50122;56.330;43.838;2023-03-22T16:16:30;100608.44;;;4.24;44.67
63946;BME280;50122;56.330;43.838;2023-03-22T16:18:58;100603.34;;;4.10;46.48
63946;BME280;50122;56.330;43.838;2023-03-22T16:21:28;100598.38;;;3.87;46.33
63946;BME280;50122;56.330;43.838;2023-03-22T16:23:59;100602.97;;;3.68;46.87
63946;BME280;50122;56.330;43.838;2023-03-22T16:26:25;100606.63;;;3.48;48.35
63946;BME280;50122;56.330;43.838;2023-03-22T16:28:51;100605.91;;;3.32;48.25
63946;BME280;50122;56.330;43.838;2023-03-22T16:31:22;100610.38;;;3.16;49.06
63946;BME280;50122;56.330;43.838;2023-03-22T16:33:48;100616.56;;;3.06;48.96
63946;BME280;50122;56.330;43.838;2023-03-22T16:36:23;100606.25;;;2.86;49.95
63946;BME280;50122;56.330;43.838;2023-03-22T16:38:55;100621.09;;;2.82;50.93
63946;BME280;50122;56.330;43.838;2023-03-22T16:41:27;100615.91;;;2.77;50.64
63946;BME280;50122;56.330;43.838;2023-03-22T16:43:55;100620.31;;;2.69;50.54
63946;BME280;50122;56.330;43.838;2023-03-22T16:46:27;100622.06;;;2.66;50.86
63946;BME280;50122;56.330;43.838;2023-03-22T16:49:08;100624.69;;;2.59;51.78
63946;BME280;50122;56.330;43.838;2023-03-22T16:51:37;100624.78;;;2.46;52.77
63946;BME280;50122;56.330;43.838;2023-03-22T16:54:05;100632.66;;;2.35;52.93
63946;BME280;50122;56.330;43.838;2023-03-22T16:56:33;100620.56;;;2.18;53.41
63946;BME280;50122;56.330;43.838;2023-03-22T16:58:59;100624.03;;;2.20;53.00
63946;BME280;50122;56.330;43.838;2023-03-22T17:01:43;100622.25;;;2.22;53.36
63946;BME280;50122;56.330;43.838;2023-03-22T17:04:16;100625.72;;;2.31;51.57
63946;BME280;50122;56.330;43.838;2023-03-22T17:06:44;100625.69;;;2.40;50.93
63946;BME280;50122;56.330;43.838;2023-03-22T17:09:11;100623.88;;;2.50;49.84
63946;BME280;50122;56.330;43.838;2023-03-22T17:11:36;100625.56;;;2.58;49.55
63946;BME280;50122;56.330;43.838;2023-03-22T17:14:04;100629.88;;;2.66;48.89
63946;BME280;50122;56.330;43.838;2023-03-22T17:16:41;100633.34;;;2.69;49.03
63946;BME280;50122;56.330;43.838;2023-03-22T17:19:10;100624.69;;;2.59;48.01
63946;BME280;50122;56.330;43.838;2023-03-22T17:21:35;100629.06;;;2.60;47.55
63946;BME280;50122;56.330;43.838;2023-03-22T17:24:10;100633.41;;;2.58;47.50
63946;BME280;50122;56.330;43.838;2023-03-22T17:26:46;100629.94;;;2.55;47.27
63946;BME280;50122;56.330;43.838;2023-03-22T17:29:12;100637.81;;;2.49;48.30
63946;BME280;50122;56.330;43.838;2023-03-22T17:31:40;100637.84;;;2.38;49.63
63946;BME280;50122;56.330;43.838;2023-03-22T17:34:11;100642.28;;;2.20;52.78
63946;BME280;50122;56.330;43.838;2023-03-22T17:36:40;100648.44;;;1.96;52.61
63946;BME280;50122;56.330;43.838;2023-03-22T17:39:18;100646.69;;;1.92;50.96
63946;BME280;50122;56.330;43.838;2023-03-22T17:41:44;100647.59;;;1.89;50.47
63946;BME280;50122;56.330;43.838;2023-03-22T17:44:11;100652.81;;;1.88;50.23
63946;BME280;50122;56.330;43.838;2023-03-22T17:46:39;100648.47;;;1.87;50.21
63946;BME280;50122;56.330;43.838;2023-03-22T17:49:05;100656.28;;;1.88;51.30
63946;BME280;50122;56.330;43.838;2023-03-22T17:51:43;100658.03;;;1.88;52.14
63946;BME280;50122;56.330;43.838;2023-03-22T17:54:12;100650.22;;;1.80;50.62
63946;BME280;50122;56.330;43.838;2023-03-22T17:56:41;100654.56;;;1.78;51.37
63946;BME280;50122;56.330;43.838;2023-03-22T17:59:09;100652.84;;;1.72;51.39
63946;BME280;50122;56.330;43.838;2023-03-22T18:01:35;100653.72;;;1.70;50.94
63946;BME280;50122;56.330;43.838;2023-03-22T18:04:05;100645.91;;;1.54;52.40
63946;BME280;50122;56.330;43.838;2023-03-22T18:06:44;100661.56;;;1.44;53.65
63946;BME280;50122;56.330;43.838;2023-03-22T18:09:10;100657.22;;;1.35;53.70
63946;BME280;50122;56.330;43.838;2023-03-22T18:11:36;100652.88;;;1.46;51.27
63946;BME280;50122;56.330;43.838;2023-03-22T18:14:04;100654.59;;;1.61;50.45
63946;BME280;50122;56.330;43.838;2023-03-22T18:16:30;100659.78;;;1.70;48.91
63946;BME280;50122;56.330;43.838;2023-03-22T18:18:59;100658.91;;;1.79;47.34
63946;BME280;50122;56.330;43.838;2023-03-22T18:21:28;100653.72;;;1.79;47.04
63946;BME280;50122;56.330;43.838;2023-03-22T18:23:59;100666.75;;;1.79;47.60
63946;BME280;50122;56.330;43.838;2023-03-22T18:26:29;100666.72;;;1.76;46.49
63946;BME280;50122;56.330;43.838;2023-03-22T18:28:58;100672.81;;;1.77;46.30
63946;BME280;50122;56.330;43.838;2023-03-22T18:31:27;100670.19;;;1.81;45.68
63946;BME280;50122;56.330;43.838;2023-03-22T18:33:55;100658.91;;;1.84;45.30
63946;BME280;50122;56.330;43.838;2023-03-22T18:36:23;100671.03;;;1.85;45.45
63946;BME280;50122;56.330;43.838;2023-03-22T18:38:49;100659.78;;;1.80;45.28
63946;BME280;50122;56.330;43.838;2023-03-22T18:41:26;100662.38;;;1.81;44.90
63946;BME280;50122;56.330;43.838;2023-03-22T18:43:52;100656.31;;;1.68;45.60
63946;BME280;50122;56.330;43.838;2023-03-22T18:46:20;100665.00;;;1.63;44.99
63946;BME280;50122;56.330;43.838;2023-03-22T18:48:48;100663.28;;;1.55;46.81
63946;BME280;50122;56.330;43.838;2023-03-22T18:51:17;100669.34;;;1.45;48.26
63946;BME280;50122;56.330;43.838;2023-03-22T18:53:45;100669.38;;;1.39;47.24
63946;BME280;50122;56.330;43.838;2023-03-22T18:56:11;100669.38;;;1.34;48.05
63946;BME280;50122;56.330;43.838;2023-03-22T18:58:37;100676.28;;;1.37;46.22
63946;BME280;50122;56.330;43.838;2023-03-22T19:01:02;100673.69;;;1.31;46.91
63946;BME280;50122;56.330;43.838;2023-03-22T19:03:29;100671.06;;;1.17;47.59
63946;BME280;50122;56.330;43.838;2023-03-22T19:06:11;100668.47;;;0.98;49.88
63946;BME280;50122;56.330;43.838;2023-03-22T19:08:41;100679.69;;;0.80;50.66
63946;BME280;50122;56.330;43.838;2023-03-22T19:11:11;100676.19;;;0.64;51.63
63946;BME280;50122;56.330;43.838;2023-03-22T19:13:40;100680.47;;;0.51;52.93
63946;BME280;50122;56.330;43.838;2023-03-22T19:16:10;100681.31;;;0.40;54.51
63946;BME280;50122;56.330;43.838;2023-03-22T19:18:39;100671.72;;;0.28;55.51
63946;BME280;50122;56.330;43.838;2023-03-22T19:21:08;100677.75;;;0.17;55.80
63946;BME280;50122;56.330;43.838;2023-03-22T19:23:37;100679.41;;;0.06;57.67
63946;BME280;50122;56.330;43.838;2023-03-22T19:26:05;100680.22;;;-0.04;57.65
63946;BME280;50122;56.330;43.838;2023-03-22T19:28:34;100668.91;;;-0.15;57.24
63946;BME280;50122;56.330;43.838;2023-03-22T19:31:06;100674.94;;;-0.18;57.45
63946;BME280;50122;56.330;43.838;2023-03-22T19:33:32;100673.16;;;-0.24;57.91
63946;BME280;50122;56.330;43.838;2023-03-22T19:36:01;100667.94;;;-0.28;58.43
63946;BME280;50122;56.330;43.838;2023-03-22T19:38:29;100669.63;;;-0.35;58.99
63946;BME280;50122;56.330;43.838;2023-03-22T19:40:59;100682.56;;;-0.40;58.69
63946;BME280;50122;56.330;43.838;2023-03-22T19:43:35;100676.50;;;-0.43;58.58
63946;BME280;50122;56.330;43.838;2023-03-22T19:46:07;100677.38;;;-0.40;57.28
63946;BME280;50122;56.330;43.838;2023-03-22T19:48:35;100667.03;;;-0.32;56.75
63946;BME280;50122;56.330;43.838;2023-03-22T19:51:01;100665.31;;;-0.33;56.83
63946;BME280;50122;56.330;43.838;2023-03-22T19:53:31;100667.91;;;-0.36;57.00
63946;BME280;50122;56.330;43.838;2023-03-22T19:56:09;100671.34;;;-0.37;56.60
63946;BME280;50122;56.330;43.838;2023-03-22T19:58:35;100668.72;;;-0.42;56.77
63946;BME280;50122;56.330;43.838;2023-03-22T20:01:10;100671.28;;;-0.45;57.58
63946;BME280;50122;56.330;43.838;2023-03-22T20:03:51;100670.41;;;-0.48;57.16
63946;BME280;50122;56.330;43.838;2023-03-22T20:06:18;100667.78;;;-0.50;57.51
63946;BME280;50122;56.330;43.838;2023-03-22T20:08:44;100672.06;;;-0.54;57.51
63946;BME280;50122;56.330;43.838;2023-03-22T20:11:09;100665.09;;;-0.61;58.07
63946;BME280;50122;56.330;43.838;2023-03-22T20:13:38;100668.56;;;-0.62;57.99
63946;BME280;50122;56.330;43.838;2023-03-22T20:16:04;100671.13;;;-0.66;58.09
63946;BME280;50122;56.330;43.838;2023-03-22T20:18:32;100676.25;;;-0.71;58.55
63946;BME280;50122;56.330;43.838;2023-03-22T20:20:58;100664.09;;;-0.75;58.57
63946;BME280;50122;56.330;43.838;2023-03-22T20:23:26;100671.03;;;-0.74;57.79
63946;BME280;50122;56.330;43.838;2023-03-22T20:25:56;100669.41;;;-0.64;56.80
63946;BME280;50122;56.330;43.838;2023-03-22T20:28:31;100666.06;;;-0.49;56.48
63946;BME280;50122;56.330;43.838;2023-03-22T20:31:09;100667.03;;;-0.30;54.34
63946;BME280;50122;56.330;43.838;2023-03-22T20:33:38;100662.78;;;-0.24;54.80
63946;BME280;50122;56.330;43.838;2023-03-22T20:36:06;100654.13;;;-0.21;54.15
63946;BME280;50122;56.330;43.838;2023-03-22T20:38:38;100654.16;;;-0.20;54.45
63946;BME280;50122;56.330;43.838;2023-03-22T20:41:11;100658.47;;;-0.22;54.22
63946;BME280;50122;56.330;43.838;2023-03-22T20:43:43;100662.75;;;-0.25;53.89
63946;BME280;50122;56.330;43.838;2023-03-22T20:46:09;100650.59;;;-0.34;54.19
63946;BME280;50122;56.330;43.838;2023-03-22T20:48:36;100663.53;;;-0.39;54.80
63946;BME280;50122;56.330;43.838;2023-03-22T20:51:02;100662.63;;;-0.45;55.79
63946;BME280;50122;56.330;43.838;2023-03-22T20:53:28;100672.16;;;-0.46;55.39
63946;BME280;50122;56.330;43.838;2023-03-22T20:55:54;100665.31;;;-0.34;54.76
63946;BME280;50122;56.330;43.838;2023-03-22T20:58:21;100653.28;;;-0.19;52.18
63946;BME280;50122;56.330;43.838;2023-03-22T21:00:47;100650.75;;;-0.05;51.94
63946;BME280;50122;56.330;43.838;2023-03-22T21:03:13;100651.69;;;0.08;51.56
63946;BME280;50122;56.330;43.838;2023-03-22T21:05:41;100646.56;;;0.21;50.77
63946;BME280;50122;56.330;43.838;2023-03-22T21:08:07;100650.94;;;0.32;50.96
63946;BME280;50122;56.330;43.838;2023-03-22T21:10:34;100651.84;;;0.44;51.05
63946;BME280;50122;56.330;43.838;2023-03-22T21:12:59;100646.66;;;0.51;51.85
63946;BME280;50122;56.330;43.838;2023-03-22T21:15:25;100651.88;;;0.58;52.12
63946;BME280;50122;56.330;43.838;2023-03-22T21:17:53;100650.19;;;0.63;52.74
63946;BME280;50122;56.330;43.838;2023-03-22T21:20:19;100649.31;;;0.62;53.82
63946;BME280;50122;56.330;43.838;2023-03-22T21:22:45;100648.47;;;0.68;54.48
63946;BME280;50122;56.330;43.838;2023-03-22T21:25:13;100658.88;;;0.71;54.27
63946;BME280;50122;56.330;43.838;2023-03-22T21:27:39;100639.78;;;0.69;55.81
63946;BME280;50122;56.330;43.838;2023-03-22T21:30:06;100639.78;;;0.66;55.91
63946;BME280;50122;56.330;43.838;2023-03-22T21:32:35;100649.31;;;0.72;56.64
63946;BME280;50122;56.330;43.838;2023-03-22T21:35:02;100651.06;;;0.71;56.90
63946;BME280;50122;56.330;43.838;2023-03-22T21:37:28;100651.06;;;0.71;57.79
63946;BME280;50122;56.330;43.838;2023-03-22T21:39:53;100653.66;;;0.71;58.71
63946;BME280;50122;56.330;43.838;2023-03-22T21:42:20;100651.94;;;0.70;58.47
63946;BME280;50122;56.330;43.838;2023-03-22T21:44:46;100636.28;;;0.59;59.42
63946;BME280;50122;56.330;43.838;2023-03-22T21:47:11;100646.72;;;0.65;60.69
63946;BME280;50122;56.330;43.838;2023-03-22T21:49:38;100645.81;;;0.63;61.21
63946;BME280;50122;56.330;43.838;2023-03-22T21:52:03;100655.38;;;0.64;61.98
63946;BME280;50122;56.330;43.838;2023-03-22T21:54:29;100652.78;;;0.64;63.11
63946;BME280;50122;56.330;43.838;2023-03-22T21:56:56;100655.38;;;0.64;63.39
63946;BME280;50122;56.330;43.838;2023-03-22T21:59:23;100650.16;;;0.61;63.97
63946;BME280;50122;56.330;43.838;2023-03-22T22:01:51;100655.38;;;0.60;64.10
63946;BME280;50122;56.330;43.838;2023-03-22T22:04:18;100661.44;;;0.62;65.04
63946;BME280;50122;56.330;43.838;2023-03-22T22:06:43;100656.22;;;0.62;65.53
63946;BME280;50122;56.330;43.838;2023-03-22T22:09:10;100653.63;;;0.63;66.49
63946;BME280;50122;56.330;43.838;2023-03-22T22:11:36;100648.44;;;0.62;67.18
63946;BME280;50122;56.330;43.838;2023-03-22T22:14:02;100649.31;;;0.65;67.90
63946;BME280;50122;56.330;43.838;2023-03-22T22:16:30;100654.53;;;0.65;68.10
63946;BME280;50122;56.330;43.838;2023-03-22T22:18:55;100659.72;;;0.65;68.67